createdAt,value
2019-04-20T00:00:41.114Z,101136.00
2019-04-20T00:03:07.715Z,101135.00
2019-04-20T00:05:41.368Z,101136.00
2019-04-20T00:08:16.807Z,101132.00
2019-04-20T00:10:51.380Z,101131.00
2019-04-20T00:13:24.642Z,101134.00
2019-04-20T00:15:45.052Z,101126.00
2019-04-20T00:18:15.143Z,101127.00
2019-04-20T00:20:50.384Z,101128.00
2019-04-20T00:23:33.672Z,101134.00
2019-04-20T00:26:14.858Z,101135.00
2019-04-20T00:28:56.146Z,101129.00
2019-04-20T00:31:25.038Z,101135.00
2019-04-20T00:33:51.805Z,101125.00
2019-04-20T00:36:11.865Z,101126.00
2019-04-20T00:38:48.300Z,101120.00
2019-04-20T00:41:15.190Z,101122.00
2019-04-20T00:43:44.146Z,101112.00
2019-04-20T00:46:22.214Z,101106.00
2019-04-20T00:48:53.765Z,101108.00
2019-04-20T00:51:30.579Z,101104.00
2019-04-20T00:53:51.469Z,101110.00
2019-04-20T00:56:20.164Z,101111.00
2019-04-20T00:59:03.072Z,101106.00
2019-04-20T01:01:43.987Z,101110.00
2019-04-20T01:04:10.441Z,101116.00
2019-04-20T01:06:46.338Z,101112.00
2019-04-20T01:09:09.949Z,101104.00
2019-04-20T01:11:43.235Z,101111.00
2019-04-20T01:14:13.929Z,101118.00
2019-04-20T01:16:49.089Z,101103.00
2019-04-20T01:19:15.928Z,101103.00
2019-04-20T01:21:49.840Z,101114.00
2019-04-20T01:24:24.778Z,101109.00
2019-04-20T01:26:50.580Z,101107.00
2019-04-20T01:29:29.692Z,101108.00
2019-04-20T01:32:01.089Z,101112.00
2019-04-20T01:34:35.892Z,101106.00
2019-04-20T01:37:04.486Z,101106.00
2019-04-20T01:39:32.986Z,101112.00
2019-04-20T01:41:54.047Z,101104.00
2019-04-20T01:44:30.107Z,101105.00
2019-04-20T01:46:58.814Z,101095.00
2019-04-20T01:49:30.632Z,101100.00
2019-04-20T01:52:07.671Z,101094.00
2019-04-20T01:54:48.187Z,101096.00
2019-04-20T01:57:08.103Z,101091.00
2019-04-20T01:59:46.063Z,101091.00
2019-04-20T02:02:20.979Z,101100.00
2019-04-20T02:04:53.538Z,101095.00
2019-04-20T02:07:28.445Z,101095.00
2019-04-20T02:09:58.385Z,101093.00
2019-04-20T02:12:30.374Z,101101.00
2019-04-20T02:14:59.370Z,101095.00
2019-04-20T02:17:36.674Z,101103.00
2019-04-20T02:20:18.591Z,101105.00
2019-04-20T02:22:46.444Z,101092.00
2019-04-20T02:24:59.553Z,101091.00
2019-04-20T02:27:36.874Z,101103.00
2019-04-20T02:30:30.031Z,101093.00
2019-04-20T02:33:13.999Z,101091.00
2019-04-20T02:35:45.360Z,101088.00
2019-04-20T02:38:40.171Z,101084.00
2019-04-20T02:40:53.962Z,101079.00
2019-04-20T02:43:39.320Z,101090.00
2019-04-20T02:45:44.201Z,101089.00
2019-04-20T02:50:50.077Z,101084.00
2019-04-20T02:53:46.580Z,101078.00
2019-04-20T02:55:58.015Z,101080.00
2019-04-20T02:58:24.005Z,101076.00
2019-04-20T03:00:52.625Z,101074.00
2019-04-20T03:03:10.727Z,101076.00
2019-04-20T03:05:40.607Z,101076.00
2019-04-20T03:08:17.339Z,101078.00
2019-04-20T03:10:54.981Z,101075.00
2019-04-20T03:13:18.312Z,101073.00
2019-04-20T03:15:51.348Z,101078.00
2019-04-20T03:18:23.562Z,101076.00
2019-04-20T03:20:52.805Z,101074.00
2019-04-20T03:23:38.560Z,101069.00
2019-04-20T03:26:16.131Z,101081.00
2019-04-20T03:28:43.503Z,101082.00
2019-04-20T03:32:15.495Z,101086.00
2019-04-20T03:36:39.813Z,101083.00
2019-04-20T03:38:57.343Z,101091.00
2019-04-20T03:41:19.544Z,101081.00
2019-04-20T03:43:41.910Z,101086.00
2019-04-20T03:46:14.388Z,101083.00
2019-04-20T03:48:58.839Z,101087.00
2019-04-20T03:51:39.842Z,101091.00
2019-04-20T03:54:18.421Z,101089.00
2019-04-20T03:57:15.694Z,101088.00
2019-04-20T03:59:39.171Z,101088.00
2019-04-20T04:02:37.887Z,101086.00
2019-04-20T04:05:00.117Z,101087.00
2019-04-20T04:07:21.866Z,101084.00
2019-04-20T04:10:03.009Z,101090.00
2019-04-20T04:13:09.346Z,101094.00
2019-04-20T04:15:47.878Z,101090.00
2019-04-20T04:18:19.709Z,101094.00
2019-04-20T04:20:51.300Z,101080.00
2019-04-20T04:23:33.875Z,101086.00
2019-04-20T04:26:05.988Z,101099.00
2019-04-20T04:28:31.111Z,101105.00
2019-04-20T04:31:09.527Z,101094.00
2019-04-20T04:33:54.861Z,101101.00
2019-04-20T04:36:04.620Z,101102.00
2019-04-20T04:38:44.633Z,101099.00
2019-04-20T04:43:42.598Z,101106.00
2019-04-20T04:45:55.405Z,101099.00
2019-04-20T04:48:29.907Z,101094.00
2019-04-20T04:51:02.453Z,101100.00
2019-04-20T04:53:40.762Z,101104.00
2019-04-20T04:56:04.887Z,101099.00
2019-04-20T04:58:29.827Z,101103.00
2019-04-20T05:01:05.727Z,101110.00
2019-04-20T05:03:44.960Z,101118.00
2019-04-20T05:06:24.441Z,101114.00
2019-04-20T05:08:45.472Z,101122.00
2019-04-20T05:11:11.105Z,101123.00
2019-04-20T05:13:48.534Z,101118.00
2019-04-20T05:16:33.868Z,101116.00
2019-04-20T05:19:03.377Z,101127.00
2019-04-20T05:21:29.878Z,101131.00
2019-04-20T05:24:07.541Z,101124.00
2019-04-20T05:26:53.413Z,101122.00
2019-04-20T05:29:06.754Z,101125.00
2019-04-20T05:34:40.354Z,101133.00
2019-04-20T05:37:17.599Z,101138.00
2019-04-20T05:39:39.939Z,101144.00
2019-04-20T05:42:13.023Z,101155.00
2019-04-20T05:44:41.656Z,101155.00
2019-04-20T05:47:11.305Z,101143.00
2019-04-20T05:49:40.282Z,101150.00
2019-04-20T05:52:24.313Z,101152.00
2019-04-20T05:54:48.961Z,101152.00
2019-04-20T05:57:22.565Z,101156.00
2019-04-20T06:00:00.630Z,101159.00
2019-04-20T06:02:26.257Z,101164.00
2019-04-20T06:05:00.477Z,101163.00
2019-04-20T06:07:26.762Z,101170.00
2019-04-20T06:09:54.666Z,101164.00
2019-04-20T06:12:28.523Z,101167.00
2019-04-20T06:15:02.690Z,101174.00
2019-04-20T06:17:53.372Z,101164.00
2019-04-20T06:20:26.967Z,101166.00
2019-04-20T06:23:05.580Z,101166.00
2019-04-20T06:25:46.106Z,101166.00
2019-04-20T06:28:02.886Z,101168.00
2019-04-20T06:30:28.386Z,101180.00
2019-04-20T06:34:01.341Z,101180.00
2019-04-20T06:36:21.783Z,101186.00
2019-04-20T06:41:24.829Z,101182.00
2019-04-20T06:43:54.203Z,101182.00
2019-04-20T06:46:30.054Z,101189.00
2019-04-20T06:48:56.464Z,101192.00
2019-04-20T06:51:22.364Z,101196.00
2019-04-20T06:53:55.013Z,101186.00
2019-04-20T06:56:42.049Z,101193.00
2019-04-20T06:59:21.579Z,101192.00
2019-04-20T07:01:48.875Z,101194.00
2019-04-20T07:04:33.527Z,101198.00
2019-04-20T07:06:50.772Z,101204.00
2019-04-20T07:09:35.017Z,101195.00
2019-04-20T07:11:51.894Z,101198.00
2019-04-20T07:14:11.118Z,101197.00
2019-04-20T07:16:59.905Z,101194.00
2019-04-20T07:19:48.056Z,101190.00
2019-04-20T07:27:25.608Z,101190.00
2019-04-20T07:30:07.922Z,101189.00
2019-04-20T07:32:17.606Z,101189.00
2019-04-20T07:34:56.705Z,101192.00
2019-04-20T07:40:13.829Z,101192.00
2019-04-20T07:42:44.596Z,101199.00
2019-04-20T07:45:18.303Z,101206.00
2019-04-20T07:50:09.022Z,101204.00
2019-04-20T07:52:33.992Z,101197.00
2019-04-20T07:55:35.184Z,101197.00
2019-04-20T07:57:40.448Z,101203.00
2019-04-20T08:00:13.467Z,101198.00
2019-04-20T08:03:03.117Z,101209.00
2019-04-20T08:05:28.474Z,101206.00
2019-04-20T08:07:53.924Z,101210.00
2019-04-20T08:10:33.770Z,101204.00
2019-04-20T08:13:09.551Z,101209.00
2019-04-20T08:18:07.659Z,101205.00
2019-04-20T08:20:43.636Z,101202.00
2019-04-20T08:23:15.420Z,101201.00
2019-04-20T08:25:31.573Z,101204.00
2019-04-20T08:27:55.117Z,101199.00
2019-04-20T08:30:46.498Z,101198.00
2019-04-20T08:33:26.614Z,101191.00
2019-04-20T08:35:58.446Z,101208.00
2019-04-20T08:39:01.370Z,101198.00
2019-04-20T08:40:58.376Z,101194.00
2019-04-20T08:43:42.090Z,101196.00
2019-04-20T08:46:03.501Z,101200.00
2019-04-20T08:48:33.233Z,101198.00
2019-04-20T08:51:03.455Z,101196.00
2019-04-20T08:53:39.079Z,101203.00
2019-04-20T08:56:02.325Z,101198.00
2019-04-20T08:58:18.090Z,101189.00
2019-04-20T09:00:53.678Z,101194.00
2019-04-20T09:03:25.486Z,101191.00
2019-04-20T09:05:59.372Z,101178.00
2019-04-20T09:08:24.908Z,101185.00
2019-04-20T09:11:10.014Z,101177.00
2019-04-20T09:13:32.072Z,101177.00
2019-04-20T09:15:54.035Z,101185.00
2019-04-20T09:18:42.080Z,101176.00
2019-04-20T09:21:08.497Z,101177.00
2019-04-20T09:23:45.910Z,101178.00
2019-04-20T09:26:24.643Z,101178.00
2019-04-20T09:28:56.048Z,101177.00
2019-04-20T09:31:30.998Z,101173.00
2019-04-20T09:34:02.512Z,101174.00
2019-04-20T09:36:40.851Z,101167.00
2019-04-20T09:39:11.425Z,101167.00
2019-04-20T09:42:00.787Z,101164.00
2019-04-20T09:44:24.588Z,101157.00
2019-04-20T09:46:56.003Z,101163.00
2019-04-20T09:49:36.178Z,101162.00
2019-04-20T09:52:09.645Z,101155.00
2019-04-20T09:54:42.911Z,101156.00
2019-04-20T09:57:13.249Z,101156.00
2019-04-20T09:59:44.826Z,101151.00
2019-04-20T10:02:06.810Z,101155.00
2019-04-20T10:04:29.192Z,101147.00
2019-04-20T10:07:02.247Z,101145.00
2019-04-20T10:09:34.712Z,101144.00
2019-04-20T10:12:01.673Z,101145.00
2019-04-20T10:14:31.145Z,101138.00
2019-04-20T10:17:00.418Z,101135.00
2019-04-20T10:19:33.692Z,101136.00
2019-04-20T10:22:00.839Z,101138.00
2019-04-20T10:24:30.642Z,101143.00
2019-04-20T10:27:00.822Z,101141.00
2019-04-20T10:29:31.220Z,101134.00
2019-04-20T10:32:05.716Z,101132.00
2019-04-20T10:34:32.733Z,101125.00
2019-04-20T10:37:03.965Z,101123.00
2019-04-20T10:39:36.276Z,101126.00
2019-04-20T10:42:06.016Z,101133.00
2019-04-20T10:44:36.951Z,101133.00
2019-04-20T10:47:07.280Z,101130.00
2019-04-20T10:49:38.284Z,101124.00
2019-04-20T10:52:07.752Z,101126.00
2019-04-20T10:54:36.906Z,101128.00
2019-04-20T10:57:07.755Z,101117.00
2019-04-20T10:59:37.345Z,101122.00
2019-04-20T11:02:07.792Z,101124.00
2019-04-20T11:04:37.134Z,101118.00
2019-04-20T11:07:06.350Z,101116.00
2019-04-20T11:09:36.648Z,101113.00
2019-04-20T11:12:06.441Z,101112.00
2019-04-20T11:14:38.751Z,101113.00
2019-04-20T11:17:08.583Z,101109.00
2019-04-20T11:19:39.116Z,101105.00
2019-04-20T11:22:08.851Z,101105.00
2019-04-20T11:24:38.713Z,101112.00
2019-04-20T11:27:08.245Z,101107.00
2019-04-20T11:29:38.052Z,101115.00
2019-04-20T11:32:07.554Z,101109.00
2019-04-20T11:34:39.956Z,101104.00
2019-04-20T11:37:08.821Z,101096.00
2019-04-20T11:39:39.088Z,101093.00
2019-04-20T11:42:09.833Z,101087.00
2019-04-20T11:44:39.515Z,101095.00
2019-04-20T11:47:08.782Z,101086.00
2019-04-20T11:49:37.950Z,101083.00
2019-04-20T11:52:07.746Z,101089.00
2019-04-20T11:54:37.054Z,101083.00
2019-04-20T11:57:07.084Z,101077.00
2019-04-20T11:59:37.129Z,101074.00
2019-04-20T12:02:25.358Z,101071.00
2019-04-20T12:05:10.104Z,101067.00
2019-04-20T12:07:24.890Z,101062.00
2019-04-20T12:09:59.394Z,101071.00
2019-04-20T12:12:35.004Z,101067.00
2019-04-20T12:14:56.751Z,101062.00
2019-04-20T12:17:26.006Z,101054.00
2019-04-20T12:19:55.701Z,101054.00
2019-04-20T12:22:26.192Z,101049.00
2019-04-20T12:24:56.212Z,101060.00
2019-04-20T12:27:26.888Z,101045.00
2019-04-20T12:29:57.569Z,101043.00
2019-04-20T12:32:34.248Z,101054.00
2019-04-20T12:34:58.222Z,101042.00
2019-04-20T12:37:27.673Z,101047.00
2019-04-20T12:39:58.413Z,101042.00
2019-04-20T12:42:28.764Z,101048.00
2019-04-20T12:44:57.965Z,101037.00
2019-04-20T12:47:27.894Z,101041.00
2019-04-20T12:49:57.355Z,101039.00
2019-04-20T12:52:26.766Z,101032.00
2019-04-20T12:54:57.487Z,101027.00
2019-04-20T12:57:28.975Z,101033.00
2019-04-20T12:59:59.458Z,101040.00
2019-04-20T13:02:29.305Z,101030.00
2019-04-20T13:04:59.523Z,101025.00
2019-04-20T13:07:31.548Z,101021.00
2019-04-20T13:10:02.232Z,101023.00
2019-04-20T13:12:50.250Z,101015.00
2019-04-20T13:15:40.607Z,101009.00
2019-04-20T13:18:11.544Z,101011.00
2019-04-20T13:20:42.033Z,101005.00
2019-04-20T13:23:11.256Z,101004.00
2019-04-20T13:25:41.245Z,101004.00
2019-04-20T13:28:10.742Z,101004.00
2019-04-20T13:30:40.222Z,101009.00
2019-04-20T13:33:10.089Z,101007.00
2019-04-20T13:35:40.535Z,100995.00
2019-04-20T13:38:10.323Z,100989.00
2019-04-20T13:40:39.832Z,100995.00
2019-04-20T13:43:09.912Z,100995.00
2019-04-20T13:45:39.495Z,100985.00
2019-04-20T13:48:09.004Z,100987.00
2019-04-20T13:50:38.278Z,100981.00
2019-04-20T13:53:07.869Z,100977.00
2019-04-20T13:55:37.973Z,100978.00
2019-04-20T13:58:15.984Z,100975.00
2019-04-20T14:01:03.083Z,100970.00
2019-04-20T14:03:36.619Z,100962.00
2019-04-20T14:06:06.842Z,100963.00
2019-04-20T14:08:39.253Z,100957.00
2019-04-20T14:11:09.436Z,100959.00
2019-04-20T14:13:48.989Z,100948.00
2019-04-20T14:16:14.383Z,100939.00
2019-04-20T14:18:45.098Z,100933.00
2019-04-20T14:21:14.461Z,100930.00
2019-04-20T14:23:43.744Z,100931.00
2019-04-20T14:26:12.896Z,100924.00
2019-04-20T14:28:42.946Z,100930.00
2019-04-20T14:31:12.380Z,100933.00
2019-04-20T14:33:41.560Z,100922.00
2019-04-20T14:36:10.967Z,100921.00
2019-04-20T14:38:40.264Z,100924.00
2019-04-20T14:41:10.599Z,100919.00
2019-04-20T14:43:39.983Z,100914.00
2019-04-20T14:46:10.598Z,100910.00
2019-04-20T14:48:40.695Z,100920.00
2019-04-20T14:51:09.921Z,100901.00
2019-04-20T14:53:41.219Z,100902.00
2019-04-20T14:56:11.423Z,100899.00
2019-04-20T14:58:43.934Z,100894.00
2019-04-20T15:01:16.411Z,100896.00
2019-04-20T15:03:45.552Z,100895.00
2019-04-20T15:06:15.775Z,100893.00
2019-04-20T15:08:45.193Z,100895.00
2019-04-20T15:11:14.816Z,100882.00
2019-04-20T15:13:44.736Z,100886.00
2019-04-20T15:16:15.038Z,100882.00
2019-04-20T15:18:58.152Z,100884.00
2019-04-20T15:21:33.555Z,100877.00
2019-04-20T15:24:03.672Z,100876.00
2019-04-20T15:26:34.164Z,100873.00
2019-04-20T15:29:04.416Z,100878.00
2019-04-20T15:31:34.310Z,100869.00
2019-04-20T15:34:04.579Z,100881.00
2019-04-20T15:36:34.142Z,100876.00
2019-04-20T15:39:05.220Z,100874.00
2019-04-20T15:41:35.806Z,100874.00
2019-04-20T15:44:05.290Z,100864.00
2019-04-20T15:46:36.533Z,100872.00
2019-04-20T15:49:06.130Z,100863.00
2019-04-20T15:51:35.446Z,100866.00
2019-04-20T15:54:05.345Z,100865.00
2019-04-20T15:56:35.531Z,100865.00
2019-04-20T15:59:06.354Z,100852.00
2019-04-20T16:01:38.486Z,100853.00
2019-04-20T16:04:21.746Z,100855.00
2019-04-20T16:06:43.405Z,100844.00
2019-04-20T16:09:17.925Z,100850.00
2019-04-20T16:11:48.766Z,100844.00
2019-04-20T16:14:19.553Z,100844.00
2019-04-20T16:16:48.847Z,100846.00
2019-04-20T16:19:32.271Z,100844.00
2019-04-20T16:21:49.895Z,100839.00
2019-04-20T16:24:22.244Z,100845.00
2019-04-20T16:27:09.730Z,100832.00
2019-04-20T16:29:39.712Z,100827.00
2019-04-20T16:32:09.691Z,100833.00
2019-04-20T16:34:40.255Z,100823.00
2019-04-20T16:37:10.632Z,100815.00
2019-04-20T16:39:40.720Z,100820.00
2019-04-20T16:42:12.018Z,100815.00
2019-04-20T16:44:45.000Z,100822.00
2019-04-20T16:47:14.684Z,100817.00
2019-04-20T16:49:44.069Z,100813.00
2019-04-20T16:52:13.269Z,100809.00
2019-04-20T16:54:44.013Z,100803.00
2019-04-20T16:57:15.582Z,100805.00
2019-04-20T16:59:48.282Z,100801.00
2019-04-20T17:02:17.452Z,100807.00
2019-04-20T17:04:47.207Z,100802.00
2019-04-20T17:07:20.546Z,100799.00
2019-04-20T17:09:51.853Z,100804.00
2019-04-20T17:12:21.727Z,100803.00
2019-04-20T17:14:51.676Z,100802.00
2019-04-20T17:17:29.575Z,100800.00
2019-04-20T17:19:59.679Z,100797.00
2019-04-20T17:22:30.017Z,100796.00
2019-04-20T17:24:59.621Z,100792.00
2019-04-20T17:27:48.889Z,100797.00
2019-04-20T17:30:27.086Z,100790.00
2019-04-20T17:33:04.172Z,100790.00
2019-04-20T17:35:43.474Z,100792.00
2019-04-20T17:38:06.523Z,100795.00
2019-04-20T17:40:59.134Z,100786.00
2019-04-20T17:43:17.898Z,100789.00
2019-04-20T17:45:49.674Z,100787.00
2019-04-20T17:48:23.313Z,100791.00
2019-04-20T17:51:07.891Z,100791.00
2019-04-20T17:53:29.327Z,100787.00
2019-04-20T17:55:53.490Z,100789.00
2019-04-20T17:58:27.904Z,100787.00
2019-04-20T18:01:24.999Z,100783.00
2019-04-20T18:04:39.787Z,100788.00
2019-04-20T18:06:34.876Z,100787.00
2019-04-20T18:09:05.288Z,100786.00
2019-04-20T18:11:24.365Z,100790.00
2019-04-20T18:13:58.905Z,100788.00
2019-04-20T18:16:46.630Z,100793.00
2019-04-20T18:19:04.123Z,100787.00
2019-04-20T18:21:43.433Z,100792.00
2019-04-20T18:24:24.269Z,100793.00
2019-04-20T18:27:02.939Z,100790.00
2019-04-20T18:29:36.774Z,100793.00
2019-04-20T18:31:51.458Z,100792.00
2019-04-20T18:34:25.685Z,100791.00
2019-04-20T18:36:54.572Z,100797.00
2019-04-20T18:39:33.396Z,100785.00
2019-04-20T18:42:07.934Z,100790.00
2019-04-20T18:44:35.078Z,100792.00
2019-04-20T18:47:16.736Z,100800.00
2019-04-20T18:49:44.925Z,100794.00
2019-04-20T18:52:01.857Z,100794.00
2019-04-20T18:54:37.637Z,100796.00
2019-04-20T18:57:03.632Z,100796.00
2019-04-20T18:59:40.639Z,100804.00
2019-04-20T19:02:11.434Z,100796.00
2019-04-20T19:04:37.551Z,100803.00
2019-04-20T19:07:07.917Z,100794.00
2019-04-20T19:09:39.359Z,100797.00
2019-04-20T19:12:13.172Z,100801.00
2019-04-20T19:15:12.094Z,100798.00
2019-04-20T19:17:45.216Z,100797.00
2019-04-20T19:20:18.350Z,100802.00
2019-04-20T19:22:48.259Z,100802.00
2019-04-20T19:25:25.732Z,100803.00
2019-04-20T19:27:53.917Z,100807.00
2019-04-20T19:30:32.717Z,100806.00
2019-04-20T19:33:09.081Z,100805.00
2019-04-20T19:35:33.593Z,100803.00
2019-04-20T19:38:06.599Z,100801.00
2019-04-20T19:40:40.984Z,100792.00
2019-04-20T19:43:08.560Z,100798.00
2019-04-20T19:45:56.673Z,100801.00
2019-04-20T19:48:21.766Z,100796.00
2019-04-20T19:50:56.021Z,100800.00
2019-04-20T19:53:26.666Z,100801.00
2019-04-20T19:55:47.889Z,100797.00
2019-04-20T19:58:17.507Z,100796.00
2019-04-20T20:00:49.112Z,100797.00
2019-04-20T20:03:17.539Z,100798.00
2019-04-20T20:05:49.939Z,100794.00
2019-04-20T20:08:23.290Z,100798.00
2019-04-20T20:10:52.607Z,100793.00
2019-04-20T20:13:27.622Z,100796.00
2019-04-20T20:16:09.027Z,100789.00
2019-04-20T20:18:39.231Z,100794.00
2019-04-20T20:21:12.682Z,100799.00
2019-04-20T20:23:27.926Z,100797.00
2019-04-20T20:25:58.829Z,100788.00
2019-04-20T20:28:37.045Z,100792.00
2019-04-20T20:31:08.653Z,100788.00
2019-04-20T20:33:43.654Z,100791.00
2019-04-20T20:36:10.803Z,100788.00
2019-04-20T20:38:39.745Z,100783.00
2019-04-20T20:41:15.171Z,100790.00
2019-04-20T20:43:51.205Z,100783.00
2019-04-20T20:46:21.615Z,100788.00
2019-04-20T20:49:03.083Z,100785.00
2019-04-20T20:51:35.793Z,100787.00
2019-04-20T20:53:52.254Z,100782.00
2019-04-20T20:56:19.202Z,100791.00
2019-04-20T20:58:53.891Z,100784.00
2019-04-20T21:01:21.425Z,100787.00
2019-04-20T21:03:48.594Z,100786.00
2019-04-20T21:06:18.244Z,100778.00
2019-04-20T21:08:51.474Z,100782.00
2019-04-20T21:11:22.002Z,100785.00
2019-04-20T21:13:49.251Z,100778.00
2019-04-20T21:16:23.860Z,100779.00
2019-04-20T21:19:05.992Z,100774.00
2019-04-20T21:21:37.350Z,100776.00
2019-04-20T21:24:01.406Z,100775.00
2019-04-20T21:26:30.566Z,100774.00
2019-04-20T21:29:03.946Z,100779.00
2019-04-20T21:31:34.306Z,100779.00
2019-04-20T21:34:10.503Z,100778.00
2019-04-20T21:36:36.774Z,100777.00
2019-04-20T21:39:16.292Z,100777.00
2019-04-20T21:41:48.978Z,100772.00
2019-04-20T21:44:21.527Z,100772.00
2019-04-20T21:46:49.669Z,100774.00
2019-04-20T21:49:31.156Z,100776.00
2019-04-20T21:51:55.698Z,100773.00
2019-04-20T21:54:18.323Z,100775.00
2019-04-20T21:56:53.793Z,100769.00
2019-04-20T21:59:36.313Z,100768.00
2019-04-20T22:02:10.703Z,100768.00
2019-04-20T22:04:33.547Z,100767.00
2019-04-20T22:07:02.849Z,100761.00
2019-04-20T22:09:40.035Z,100756.00
2019-04-20T22:12:03.438Z,100757.00
2019-04-20T22:14:33.938Z,100759.00
2019-04-20T22:17:05.354Z,100763.00
2019-04-20T22:19:44.149Z,100758.00
2019-04-20T22:22:18.495Z,100753.00
2019-04-20T22:24:53.899Z,100761.00
2019-04-20T22:27:16.827Z,100752.00
2019-04-20T22:29:39.665Z,100754.00
2019-04-20T22:32:13.389Z,100750.00
2019-04-20T22:34:41.763Z,100749.00
2019-04-20T22:37:17.826Z,100747.00
2019-04-20T22:39:49.798Z,100746.00
2019-04-20T22:42:17.933Z,100748.00
2019-04-20T22:44:47.986Z,100749.00
2019-04-20T22:47:23.103Z,100748.00
2019-04-20T22:50:08.193Z,100751.00
2019-04-20T22:52:34.791Z,100744.00
2019-04-20T22:55:12.054Z,100749.00
2019-04-20T22:57:39.068Z,100730.00
2019-04-20T23:00:02.063Z,100735.00
2019-04-20T23:02:25.267Z,100733.00
2019-04-20T23:04:54.927Z,100728.00
2019-04-20T23:07:24.341Z,100732.00
2019-04-20T23:09:56.436Z,100725.00
2019-04-20T23:12:26.971Z,100720.00
2019-04-20T23:14:56.487Z,100712.00
2019-04-20T23:17:33.531Z,100710.00
2019-04-20T23:19:59.988Z,100709.00
2019-04-20T23:22:34.804Z,100707.00
2019-04-20T23:24:59.458Z,100699.00
2019-04-20T23:27:31.509Z,100699.00
2019-04-20T23:30:05.923Z,100693.00
2019-04-20T23:32:32.016Z,100698.00
2019-04-20T23:35:04.945Z,100690.00
2019-04-20T23:37:35.630Z,100692.00
2019-04-20T23:40:23.600Z,100691.00
2019-04-20T23:42:55.797Z,100684.00
2019-04-20T23:45:38.578Z,100688.00
2019-04-20T23:48:23.678Z,100679.00
2019-04-20T23:51:07.956Z,100681.00
2019-04-20T23:53:39.373Z,100674.00
2019-04-20T23:55:52.104Z,100674.00
2019-04-20T23:58:21.458Z,100666.00
